Time;durP1;ratioP1;P1;durP2;ratioP2;P2;SDS_P1;SDS_P2;PMS_P1;PMS_P2;Temp;Humidity;BMP_temperature;BMP_pressure;BME280_temperature;BME280_humidity;BME280_pressure;Samples;Min_cycle;Max_cycle;Signal;HPM_P1;HPM_P2
2022/01/02 00:01:48;;;;;;;11.73;5.18;;;;;;;11.44;80.88;101726.19;5024773;28;20439;-62
2022/01/02 00:04:19;;;;;;;12.75;5.72;;;;;;;11.42;81.18;101728.31;5024416;28;20029;-62
2022/01/02 00:06:52;;;;;;;13.38;6.20;;;;;;;11.49;80.79;101724.69;5023769;28;20121;-62
2022/01/02 00:09:32;;;;;;;12.38;5.78;;;;;;;11.50;81.01;101734.63;5022745;28;20092;-62
2022/01/02 00:12:07;;;;;;;12.18;5.28;;;;;;;11.47;80.89;101732.34;5025493;28;20127;-62
2022/01/02 00:14:35;;;;;;;11.50;6.22;;;;;;;11.48;80.82;101745.88;5024372;28;20037;-63
2022/01/02 00:17:05;;;;;;;11.93;5.15;;;;;;;11.48;80.88;101750.53;5023920;28;20063;-62
2022/01/02 00:19:32;;;;;;;11.23;4.63;;;;;;;11.54;80.25;101766.16;5026132;28;20021;-62
2022/01/02 00:22:01;;;;;;;10.38;4.65;;;;;;;11.59;79.86;101769.97;5022712;28;20063;-62
2022/01/02 00:24:27;;;;;;;12.43;5.40;;;;;;;11.55;80.62;101760.44;5024292;28;20021;-62
2022/01/02 00:26:55;;;;;;;12.18;4.50;;;;;;;11.54;80.51;101763.41;5024124;28;20101;-62
2022/01/02 00:29:22;;;;;;;13.40;5.22;;;;;;;11.55;80.24;101752.19;5024202;28;20025;-62
2022/01/02 00:31:48;;;;;;;11.38;5.03;;;;;;;11.51;80.76;101753.69;5017394;28;20026;-62
2022/01/02 00:34:14;;;;;;;12.20;5.22;;;;;;;11.57;80.25;101743.75;5021479;28;20045;-62
2022/01/02 00:36:40;;;;;;;12.02;5.68;;;;;;;11.54;81.07;101738.66;5019354;28;20491;-62
2022/01/02 00:39:06;;;;;;;11.68;5.60;;;;;;;11.53;81.52;101732.31;5023045;28;20036;-63
2022/01/02 00:41:42;;;;;;;11.02;5.15;;;;;;;11.50;82.46;101731.88;5023746;28;20380;-63
2022/01/02 00:44:31;;;;;;;10.18;5.18;;;;;;;11.44;83.18;101726.19;5021493;28;20244;-62
2022/01/02 00:47:10;;;;;;;12.43;5.38;;;;;;;11.37;83.86;101728.13;5024198;28;20759;-62
2022/01/02 00:49:39;;;;;;;10.07;4.88;;;;;;;11.32;84.12;101730.66;5023705;28;20025;-62
2022/01/02 00:52:10;;;;;;;11.82;5.30;;;;;;;11.32;84.18;101730.66;5023509;28;20030;-62
2022/01/02 00:54:39;;;;;;;14.73;5.03;;;;;;;11.29;84.70;101730.25;5022844;28;20469;-62
2022/01/02 00:57:08;;;;;;;;;;;;;;;11.41;83.95;101721.13;5022352;28;20017;-62
2022/01/02 00:59:46;;;;;;;11.52;5.18;;;;;;;11.21;85.84;101728.56;5022959;28;19947;-62
2022/01/02 01:02:15;;;;;;;12.20;5.43;;;;;;;11.12;86.27;101727.09;5022816;28;20119;-62
2022/01/02 01:04:43;;;;;;;13.75;6.03;;;;;;;11.08;87.27;101712.91;5023392;28;20112;-62
2022/01/02 01:07:08;;;;;;;10.75;5.85;;;;;;;11.07;87.15;101722.22;5022304;28;20112;-62
2022/01/02 01:09:34;;;;;;;11.48;5.32;;;;;;;11.04;87.53;101710.81;5023267;28;20564;-62
2022/01/02 01:12:01;;;;;;;11.05;5.72;;;;;;;11.03;87.26;101712.72;5022275;28;20067;-62
2022/01/02 01:14:28;;;;;;;13.18;5.60;;;;;;;10.98;88.23;101704.25;5022910;28;20029;-62
2022/01/02 01:16:54;;;;;;;12.60;6.37;;;;;;;10.98;88.03;101700.66;5022144;28;20053;-62
2022/01/02 01:19:20;;;;;;;13.45;6.25;;;;;;;10.96;88.60;101708.28;5022892;28;20499;-62
2022/01/02 01:21:46;;;;;;;14.55;6.60;;;;;;;10.95;88.85;101701.06;5022776;28;20040;-62
2022/01/02 01:24:11;;;;;;;13.75;6.13;;;;;;;10.91;89.19;101698.78;5023280;28;20527;-62
2022/01/02 01:26:37;;;;;;;12.70;6.57;;;;;;;10.93;89.01;101690.31;5023542;28;20036;-62
2022/01/02 01:29:03;;;;;;;13.52;6.97;;;;;;;10.87;89.67;101696.66;5023146;28;20041;-62
2022/01/02 01:31:28;;;;;;;12.05;6.50;;;;;;;10.88;89.62;101693.69;5023384;28;20030;-62
2022/01/02 01:33:53;;;;;;;14.38;5.72;;;;;;;10.88;89.88;101685.44;5023284;28;20029;-62
2022/01/02 01:36:18;;;;;;;13.88;5.85;;;;;;;10.85;90.17;101683.13;5022262;28;20026;-62
2022/01/02 01:38:44;;;;;;;14.05;6.07;;;;;;;10.85;90.02;101672.16;5022716;28;20037;-62
2022/01/02 01:41:42;;;;;;;15.88;6.10;;;;;;;10.86;89.96;101662.00;5022317;28;20080;-63
2022/01/02 01:46:37;;;;;;;11.95;6.22;;;;;;;10.78;90.68;101656.72;5022337;28;20519;-62
2022/01/02 01:49:16;;;;;;;12.43;5.22;;;;;;;10.77;91.42;101661.34;5022454;28;20125;-62
2022/01/02 01:51:43;;;;;;;15.45;6.20;;;;;;;10.78;91.15;101662.19;5020794;28;20116;-62
2022/01/02 01:54:08;;;;;;;15.65;6.85;;;;;;;10.78;91.46;101649.31;5023317;28;20376;-62
2022/01/02 01:56:34;;;;;;;15.35;6.18;;;;;;;10.78;91.64;101652.06;5022032;28;20017;-63
2022/01/02 01:58:59;;;;;;;14.18;5.63;;;;;;;10.78;91.66;101635.56;5024582;28;20579;-62
2022/01/02 02:01:24;;;;;;;18.80;5.65;;;;;;;10.79;91.99;101630.91;5023183;28;20128;-62
2022/01/02 02:03:50;;;;;;;13.07;6.05;;;;;;;10.86;91.03;101616.13;5022556;28;20009;-62
2022/01/02 02:06:15;;;;;;;16.27;7.43;;;;;;;10.85;91.75;101621.84;5020285;28;20469;-62
2022/01/02 02:08:40;;;;;;;14.35;6.28;;;;;;;10.83;91.48;101613.78;5023857;28;20084;-62
2022/01/02 02:11:05;;;;;;;14.07;5.88;;;;;;;10.85;91.23;101622.69;5022927;28;20017;-63
2022/01/02 02:13:32;;;;;;;12.38;5.75;;;;;;;10.86;91.48;101599.63;5024383;28;20542;-62
2022/01/02 02:16:00;;;;;;;14.30;5.15;;;;;;;10.97;91.21;101591.78;5013389;28;20053;-62
2022/01/02 02:18:26;;;;;;;15.07;5.43;;;;;;;10.96;91.22;101603.84;5021635;28;20035;-62
2022/01/02 02:20:51;;;;;;;15.00;5.38;;;;;;;10.97;91.21;101594.53;5022129;28;20210;-62
2022/01/02 02:23:16;;;;;;;16.45;5.43;;;;;;;11.03;91.38;101594.50;5020350;28;20079;-63
2022/01/02 02:25:43;;;;;;;14.82;5.20;;;;;;;11.03;91.14;101594.50;5022801;28;20392;-62
2022/01/02 02:28:12;;;;;;;15.85;5.00;;;;;;;11.02;91.26;101581.84;5023442;28;20095;-62
2022/01/02 02:30:41;;;;;;;13.00;5.18;;;;;;;11.05;91.02;101584.16;5020727;28;20072;-62
2022/01/02 02:33:08;;;;;;;13.05;4.95;;;;;;;11.11;90.20;101574.19;5019435;28;20033;-63
2022/01/02 02:35:35;;;;;;;15.93;4.97;;;;;;;11.09;91.09;101577.16;5022354;28;20033;-63
2022/01/02 02:38:00;;;;;;;16.30;5.78;;;;;;;11.11;90.30;101566.78;5022558;28;20040;-62
2022/01/02 02:40:28;;;;;;;13.57;5.32;;;;;;;11.14;90.51;101571.00;5022148;28;20025;-63
2022/01/02 02:43:02;;;;;;;;;;;;;;;11.21;90.29;101568.25;5021209;28;20021;-62
2022/01/02 02:51:03;;;;;;;14.23;5.22;;;;;;;11.18;90.18;101542.84;5022551;28;20567;-63
2022/01/02 02:53:29;;;;;;;12.38;5.57;;;;;;;11.20;90.25;101539.88;5023098;28;20022;-62
2022/01/02 02:55:57;;;;;;;12.50;5.57;;;;;;;11.21;89.90;101532.50;5021452;28;20486;-62
2022/01/02 03:01:02;;;;;;;14.13;5.68;;;;;;;11.22;90.00;101537.78;5022096;28;19921;-62
2022/01/02 03:03:27;;;;;;;15.20;5.53;;;;;;;11.25;89.44;101530.97;5020379;28;20124;-62
2022/01/02 03:05:52;;;;;;;11.65;4.43;;;;;;;11.36;88.88;101528.41;5025510;28;20120;-62
2022/01/02 03:08:18;;;;;;;14.68;5.47;;;;;;;11.40;89.08;101534.28;5025613;28;20435;-62
2022/01/02 03:10:44;;;;;;;15.90;5.10;;;;;;;11.40;89.12;101529.66;5025374;28;20017;-62
2022/01/02 03:13:09;;;;;;;12.65;5.28;;;;;;;11.41;89.29;101549.75;5024942;28;20120;-62
2022/01/02 03:15:34;;;;;;;12.95;4.50;;;;;;;11.44;88.94;101535.53;5026203;28;20719;-63
2022/01/02 03:18:00;;;;;;;15.10;5.05;;;;;;;11.43;88.90;101533.88;5024104;28;20075;-62
2022/01/02 03:20:25;;;;;;;15.98;5.57;;;;;;;11.42;89.19;101544.03;5025210;28;20032;-62
2022/01/02 03:22:50;;;;;;;15.75;5.13;;;;;;;11.41;89.38;101542.34;5024699;28;20423;-62
2022/01/02 03:25:17;;;;;;;15.10;5.20;;;;;;;11.37;89.76;101541.09;5025712;28;20066;-62
2022/01/02 03:27:43;;;;;;;14.13;5.82;;;;;;;11.31;89.78;101541.97;5026522;28;20112;-62
2022/01/02 03:30:11;;;;;;;15.20;5.45;;;;;;;11.32;89.89;101545.56;5022804;28;20037;-62
2022/01/02 03:32:36;;;;;;;;;;;;;;;11.46;89.31;101540.84;5026543;28;20069;-62
2022/01/02 03:35:02;;;;;;;16.20;5.43;;;;;;;11.29;90.11;101535.00;5025828;28;20003;-62
2022/01/02 03:37:29;;;;;;;15.50;5.80;;;;;;;11.23;90.50;101539.47;5024521;28;20029;-62
2022/01/02 03:39:55;;;;;;;14.65;5.63;;;;;;;11.17;91.17;101537.59;5023013;28;20025;-62
2022/01/02 03:42:20;;;;;;;14.13;5.45;;;;;;;11.17;90.84;101545.84;5023094;28;20033;-62
2022/01/02 03:44:46;;;;;;;18.27;6.03;;;;;;;11.22;91.09;101542.44;5023767;28;20157;-63
2022/01/02 03:47:11;;;;;;;18.63;6.13;;;;;;;11.10;91.92;101536.75;5024676;28;20433;-62
2022/01/02 03:49:36;;;;;;;13.63;5.50;;;;;;;11.06;92.24;101532.78;5024944;28;20029;-63
2022/01/02 03:52:03;;;;;;;17.27;5.82;;;;;;;11.05;92.08;101531.06;5021980;28;20018;-63
2022/01/02 03:54:29;;;;;;;15.00;5.90;;;;;;;11.06;92.13;101524.53;5020374;28;20139;-62
2022/01/02 03:56:54;;;;;;;13.13;5.53;;;;;;;11.05;92.00;101529.19;5025652;28;20093;-62
2022/01/02 03:59:20;;;;;;;18.83;6.03;;;;;;;10.96;92.91;101524.97;5023291;28;20571;-62
2022/01/02 04:01:45;;;;;;;16.65;5.88;;;;;;;10.94;92.57;101512.50;5023794;28;20449;-62
2022/01/02 04:04:10;;;;;;;15.23;6.20;;;;;;;10.97;92.55;101496.44;5024753;28;20041;-63
2022/01/02 04:06:35;;;;;;;16.45;6.13;;;;;;;10.95;92.57;101497.69;5024446;28;20100;-63
2022/01/02 04:09:01;;;;;;;14.25;5.90;;;;;;;10.94;92.47;101502.34;5024422;28;20025;-62
2022/01/02 04:11:26;;;;;;;14.70;5.78;;;;;;;10.92;92.66;101482.50;5025100;28;20516;-62
2022/01/02 04:13:51;;;;;;;15.57;5.60;;;;;;;10.89;92.84;101489.25;5024967;28;20099;-62
2022/01/02 04:16:16;;;;;;;15.82;6.60;;;;;;;10.87;93.28;101474.91;5024110;28;20037;-62
2022/01/02 04:18:41;;;;;;;17.15;6.15;;;;;;;10.90;92.70;101484.63;5025850;28;20071;-62
2022/01/02 04:21:07;;;;;;;16.90;6.18;;;;;;;10.86;93.12;101475.97;5023605;28;20091;-63
2022/01/02 04:23:32;;;;;;;14.93;5.65;;;;;;;10.85;93.26;101474.28;5024443;28;20033;-63
2022/01/02 04:25:57;;;;;;;16.10;5.38;;;;;;;10.87;93.18;101477.66;5025428;28;20063;-62
2022/01/02 04:28:22;;;;;;;14.40;6.25;;;;;;;10.84;93.53;101478.06;5025308;28;20425;-62
2022/01/02 04:30:48;;;;;;;13.25;6.57;;;;;;;10.86;93.42;101475.13;5025196;28;20171;-62
2022/01/02 04:33:13;;;;;;;15.93;6.15;;;;;;;10.86;93.49;101473.22;5023749;28;20029;-62
2022/01/02 04:35:38;;;;;;;16.17;6.47;;;;;;;10.88;93.47;101462.00;5025286;28;20602;-62
2022/01/02 04:38:03;;;;;;;12.57;5.78;;;;;;;10.90;93.09;101468.97;5023070;28;20052;-62
2022/01/02 04:40:29;;;;;;;14.27;6.10;;;;;;;10.91;93.21;101464.31;5023726;28;20472;-62
2022/01/02 04:42:54;;;;;;;17.98;6.05;;;;;;;10.88;93.68;101449.09;5025176;28;20030;-62
2022/01/02 04:45:19;;;;;;;18.27;6.50;;;;;;;10.88;93.26;101460.09;5023654;28;20036;-62
2022/01/02 04:47:44;;;;;;;14.23;5.55;;;;;;;10.85;93.71;101455.06;5023823;28;20021;-62
2022/01/02 04:50:10;;;;;;;14.82;5.32;;;;;;;10.84;93.76;101445.09;5023397;28;20060;-62
2022/01/02 04:52:35;;;;;;;18.42;5.93;;;;;;;10.80;94.21;101445.78;5023431;28;20091;-62
2022/01/02 04:55:00;;;;;;;11.52;5.72;;;;;;;10.79;93.85;101433.06;5025182;28;20075;-62
2022/01/02 04:57:25;;;;;;;15.27;6.03;;;;;;;10.75;94.39;101427.19;5022012;28;20088;-62
2022/01/02 04:59:51;;;;;;;16.13;5.65;;;;;;;10.77;93.88;101422.31;5022784;28;20115;-62
2022/01/02 05:02:16;;;;;;;16.33;5.63;;;;;;;10.75;93.82;101409.88;5023390;28;20038;-62
2022/01/02 05:04:41;;;;;;;13.02;5.72;;;;;;;10.73;93.94;101403.72;5020258;28;20034;-62
2022/01/02 05:07:07;;;;;;;11.77;6.05;;;;;;;10.69;94.12;101396.97;5023732;28;20108;-62
2022/01/02 05:09:33;;;;;;;16.75;5.90;;;;;;;10.65;94.45;101386.44;5019354;28;20049;-62
2022/01/02 05:11:58;;;;;;;15.80;6.35;;;;;;;10.63;94.36;101388.56;5022311;28;20028;-62
2022/01/02 05:14:23;;;;;;;13.25;5.20;;;;;;;10.60;94.57;101389.00;5022948;28;20104;-63
2022/01/02 05:16:49;;;;;;;15.27;5.40;;;;;;;10.59;94.55;101395.56;5022722;28;20036;-62
2022/01/02 05:19:14;;;;;;;13.90;5.35;;;;;;;10.58;94.83;101380.13;5017512;28;20054;-62
2022/01/02 05:21:39;;;;;;;13.25;5.63;;;;;;;10.60;94.23;101382.66;5020130;28;20179;-62
2022/01/02 05:24:05;;;;;;;12.73;5.32;;;;;;;10.55;94.83;101364.09;5023933;28;20464;-62
2022/01/02 05:26:31;;;;;;;17.27;6.00;;;;;;;10.56;95.00;101367.69;5023457;28;20026;-62
2022/01/02 05:28:56;;;;;;;13.75;5.82;;;;;;;10.51;94.97;101360.09;5023431;28;20022;-62
2022/01/02 05:31:21;;;;;;;14.65;6.05;;;;;;;10.50;95.06;101352.91;5023876;28;20040;-62
2022/01/02 05:33:46;;;;;;;12.18;5.60;;;;;;;10.52;95.37;101355.44;5012072;28;20045;-62
2022/01/02 05:36:12;;;;;;;13.77;5.90;;;;;;;10.50;95.48;101358.41;5023075;28;20072;-62
2022/01/02 05:38:37;;;;;;;16.35;5.93;;;;;;;10.51;95.17;101354.59;5022596;28;20032;-62
2022/01/02 05:41:02;;;;;;;12.73;5.53;;;;;;;10.54;94.94;101350.56;5021680;28;20029;-63
2022/01/02 05:43:29;;;;;;;13.02;5.75;;;;;;;10.55;94.79;101344.03;5024626;28;20442;-62
2022/01/02 05:45:55;;;;;;;11.77;5.63;;;;;;;10.55;94.59;101338.53;5023391;28;20034;-62
2022/01/02 05:48:20;;;;;;;13.35;5.45;;;;;;;10.54;94.73;101336.81;5022184;28;20359;-62
2022/01/02 05:50:46;;;;;;;15.75;5.53;;;;;;;10.55;94.82;101328.38;5018051;28;20033;-62
2022/01/02 05:53:11;;;;;;;14.25;5.93;;;;;;;10.53;94.59;101324.16;5022600;28;20021;-63
2022/01/02 05:55:37;;;;;;;13.85;5.57;;;;;;;10.53;94.86;101318.66;5022836;28;20103;-62
2022/01/02 05:58:02;;;;;;;14.90;6.25;;;;;;;10.48;95.46;101313.00;5021699;28;20028;-63
2022/01/02 06:00:28;;;;;;;12.00;6.07;;;;;;;10.47;95.48;101305.81;5023837;28;20026;-62
2022/01/02 06:02:53;;;;;;;14.85;5.78;;;;;;;10.47;95.41;101289.34;5022501;28;20026;-62
2022/01/02 06:05:18;;;;;;;16.23;5.90;;;;;;;10.44;95.54;101276.91;5020891;28;20037;-62
2022/01/02 06:07:44;;;;;;;13.90;6.18;;;;;;;10.42;95.38;101275.44;5019993;28;20034;-62
2022/01/02 06:10:09;;;;;;;15.85;6.70;;;;;;;10.44;95.11;101271.41;5013877;28;20084;-63
2022/01/02 06:12:34;;;;;;;13.15;5.40;;;;;;;10.41;95.43;101263.59;5003772;28;20473;-62
2022/01/02 06:15:00;;;;;;;12.27;5.70;;;;;;;10.39;95.32;101251.97;5017518;28;20087;-62
2022/01/02 06:17:25;;;;;;;14.00;6.88;;;;;;;10.43;94.97;101246.91;5022846;28;20492;-63
2022/01/02 06:19:50;;;;;;;14.52;5.78;;;;;;;10.40;95.13;101242.72;5022209;28;20591;-62
2022/01/02 06:22:16;;;;;;;12.82;5.38;;;;;;;10.40;95.20;101239.97;5020296;28;20033;-62
2022/01/02 06:24:41;;;;;;;11.10;5.20;;;;;;;10.47;94.25;101237.16;5022166;28;20091;-62
2022/01/02 06:27:06;;;;;;;13.68;5.57;;;;;;;10.47;94.14;101209.72;5007136;28;20074;-63
2022/01/02 06:29:32;;;;;;;10.45;5.40;;;;;;;10.53;93.38;101211.56;5017304;28;20060;-62
2022/01/02 06:31:57;;;;;;;13.77;5.72;;;;;;;10.49;94.01;101197.44;5023693;28;20030;-62
2022/01/02 06:34:23;;;;;;;10.27;5.10;;;;;;;10.53;93.24;101184.94;5023722;28;20033;-63
2022/01/02 06:36:48;;;;;;;10.10;5.10;;;;;;;10.52;93.26;101174.19;5019320;28;20026;-63
2022/01/02 06:39:13;;;;;;;12.63;5.28;;;;;;;10.51;93.62;101161.50;5025074;28;20036;-63
2022/01/02 06:41:38;;;;;;;10.13;4.97;;;;;;;10.58;92.67;101165.03;5025324;28;20033;-63
2022/01/02 06:44:04;;;;;;;10.50;5.13;;;;;;;10.63;92.14;101151.47;5024482;28;20053;-62
2022/01/02 06:46:29;;;;;;;10.88;5.03;;;;;;;10.61;91.82;101150.88;5026459;28;20036;-62
2022/01/02 06:48:54;;;;;;;11.75;4.75;;;;;;;10.62;92.11;101136.06;5025085;28;20045;-62
2022/01/02 06:51:20;;;;;;;10.57;4.43;;;;;;;10.64;91.06;101120.19;5023112;28;20091;-62
2022/01/02 06:53:45;;;;;;;10.77;4.47;;;;;;;10.66;91.38;101126.31;5026301;28;20041;-63
2022/01/02 06:56:10;;;;;;;11.15;4.45;;;;;;;10.66;90.56;101126.31;5026339;28;20029;-63
2022/01/02 06:58:38;;;;;;;11.40;5.05;;;;;;;10.65;90.87;101124.66;5026407;28;20057;-62
2022/01/02 07:01:04;;;;;;;12.52;4.50;;;;;;;10.64;90.86;101129.31;5025982;28;20095;-62
2022/01/02 07:03:30;;;;;;;10.80;4.60;;;;;;;10.67;90.51;101122.50;5026589;28;20029;-62
2022/01/02 07:05:55;;;;;;;11.93;4.47;;;;;;;10.71;90.06;101121.00;5024696;28;20032;-62
2022/01/02 07:08:20;;;;;;;11.07;4.38;;;;;;;10.69;90.03;101116.78;5023634;28;20103;-62
2022/01/02 07:10:46;;;;;;;11.65;4.07;;;;;;;10.69;90.26;101111.28;5023844;28;20028;-62
2022/01/02 07:13:11;;;;;;;10.32;4.38;;;;;;;10.73;89.37;101105.13;5025940;28;20093;-63
2022/01/02 07:15:36;;;;;;;12.27;4.28;;;;;;;10.71;89.68;101118.25;5025474;28;20030;-63
2022/01/02 07:18:01;;;;;;;13.43;5.10;;;;;;;10.69;89.42;101097.53;5025980;28;20022;-63
2022/01/02 07:20:27;;;;;;;8.95;4.28;;;;;;;10.70;89.07;101099.25;5025187;28;20443;-62
2022/01/02 07:22:52;;;;;;;11.32;5.10;;;;;;;10.70;89.64;101108.34;5025740;28;20026;-62
2022/01/02 07:25:18;;;;;;;13.13;4.40;;;;;;;10.72;89.47;101119.91;5024167;28;20108;-62
2022/01/02 07:27:43;;;;;;;11.27;4.15;;;;;;;10.71;89.20;101126.50;5026331;28;20025;-62
2022/01/02 07:30:09;;;;;;;10.90;4.40;;;;;;;10.73;88.76;101110.59;5024140;28;20406;-62
2022/01/02 07:32:35;;;;;;;10.18;4.88;;;;;;;10.73;88.75;101096.03;5009909;28;20021;-63
2022/01/02 07:35:00;;;;;;;8.23;4.45;;;;;;;10.72;89.03;101077.88;5026251;28;20034;-62
2022/01/02 07:37:26;;;;;;;9.95;4.68;;;;;;;10.72;88.83;101069.63;5023410;28;20113;-63
2022/01/02 07:39:51;;;;;;;10.65;3.70;;;;;;;10.74;88.11;101064.75;5024828;28;20025;-62
2022/01/02 07:42:16;;;;;;;8.40;3.70;;;;;;;10.75;87.96;101061.78;5024900;28;20072;-63
2022/01/02 07:44:42;;;;;;;9.18;4.22;;;;;;;10.73;87.78;101077.66;5023726;28;20072;-62
2022/01/02 07:47:08;;;;;;;9.77;3.72;;;;;;;10.79;86.67;101075.91;5022355;28;20022;-63
2022/01/02 07:49:34;;;;;;;13.20;4.07;;;;;;;10.81;86.51;101058.13;5022795;28;20036;-62
2022/01/02 07:51:59;;;;;;;9.60;3.65;;;;;;;10.81;86.55;101082.03;5025220;28;20075;-62
2022/01/02 07:54:24;;;;;;;8.77;4.03;;;;;;;10.85;86.68;101094.25;5025118;28;20029;-63
2022/01/02 07:56:50;;;;;;;8.60;4.00;;;;;;;10.77;87.96;101105.50;5016957;28;20285;-62
2022/01/02 07:59:15;;;;;;;8.43;3.67;;;;;;;10.74;88.75;101115.03;5005939;28;20452;-62
2022/01/02 08:01:40;;;;;;;9.48;4.18;;;;;;;10.70;88.82;101132.22;5021061;28;20032;-62
2022/01/02 08:04:05;;;;;;;11.35;4.00;;;;;;;10.66;88.93;101126.31;5024354;28;20071;-63
2022/01/02 08:06:31;;;;;;;9.98;4.20;;;;;;;10.66;88.67;101126.31;5025033;28;20491;-62
2022/01/02 08:08:56;;;;;;;7.65;3.60;;;;;;;10.62;88.33;101100.38;5022914;28;20017;-62
2022/01/02 08:11:22;;;;;;;10.15;4.15;;;;;;;10.61;88.49;101101.44;5023567;28;20029;-62
2022/01/02 08:13:47;;;;;;;8.98;4.25;;;;;;;10.61;88.54;101096.78;5024930;28;20033;-62
2022/01/02 08:16:12;;;;;;;8.02;3.88;;;;;;;10.63;88.02;101110.28;5008103;28;20022;-63
2022/01/02 08:18:39;;;;;;;8.90;4.00;;;;;;;10.70;87.25;101113.00;5005769;28;20031;-62
2022/01/02 08:21:04;;;;;;;9.43;3.67;;;;;;;10.73;86.25;101116.09;5009589;28;20022;-62
2022/01/02 08:23:29;;;;;;;7.95;3.53;;;;;;;10.75;86.86;101127.72;5025707;28;20074;-62
2022/01/02 08:25:54;;;;;;;9.25;4.03;;;;;;;10.81;86.39;101124.06;5023895;28;20025;-62
2022/01/02 08:28:20;;;;;;;12.00;3.85;;;;;;;10.87;85.65;101136.91;5008598;28;20439;-62
2022/01/02 08:30:47;;;;;;;9.32;4.20;;;;;;;10.90;85.32;101133.72;5021383;28;20091;-63
2022/01/02 08:33:13;;;;;;;9.07;4.32;;;;;;;10.93;85.30;101106.84;5023666;28;20030;-62
2022/01/02 08:35:39;;;;;;;10.10;4.07;;;;;;;10.93;85.76;101082.09;5024006;28;20285;-62
2022/01/02 08:38:04;;;;;;;10.20;4.60;;;;;;;10.85;87.17;101122.56;5021866;28;20032;-62
2022/01/02 08:40:30;;;;;;;8.88;4.00;;;;;;;10.89;86.14;101126.50;5024617;28;20052;-62
2022/01/02 08:42:55;;;;;;;10.77;4.50;;;;;;;10.86;86.22;101126.97;5024316;28;20083;-62
2022/01/02 08:45:21;;;;;;;8.90;3.95;;;;;;;10.86;86.17;101110.50;5024692;28;20373;-62
2022/01/02 08:47:46;;;;;;;8.68;3.88;;;;;;;10.78;86.56;101107.19;5024024;28;20037;-63
2022/01/02 08:50:12;;;;;;;10.73;4.05;;;;;;;10.86;85.40;101115.16;5010303;28;20109;-62
2022/01/02 08:52:37;;;;;;;11.32;4.68;;;;;;;10.89;85.90;101125.69;5009217;28;20030;-62
2022/01/02 08:55:03;;;;;;;10.60;4.45;;;;;;;10.90;85.87;101125.47;5018720;28;20064;-62
2022/01/02 08:57:29;;;;;;;9.73;4.07;;;;;;;10.95;84.99;101133.03;5014485;28;20473;-62
2022/01/02 08:59:54;;;;;;;10.30;4.33;;;;;;;10.99;85.37;101127.91;5008160;28;20045;-62
2022/01/02 09:02:19;;;;;;;8.57;4.25;;;;;;;11.02;84.57;101133.81;5020385;28;20751;-63
2022/01/02 09:04:44;;;;;;;11.13;4.10;;;;;;;11.08;83.29;101124.66;5023334;28;20024;-62
2022/01/02 09:07:10;;;;;;;8.02;4.50;;;;;;;11.05;83.72;101114.13;5019769;28;20030;-63
2022/01/02 09:09:35;;;;;;;9.70;4.40;;;;;;;11.08;83.67;101119.16;5012017;28;20472;-62
2022/01/02 09:12:01;;;;;;;8.18;4.43;;;;;;;11.04;83.84;101115.16;5019075;28;20276;-63
2022/01/02 09:14:26;;;;;;;11.25;4.70;;;;;;;11.11;84.53;101106.88;5018420;28;20125;-63
2022/01/02 09:16:51;;;;;;;11.52;5.00;;;;;;;11.25;83.17;101113.88;5006327;28;20396;-63
2022/01/02 09:19:17;;;;;;;10.15;4.90;;;;;;;11.36;82.44;101115.88;5012484;28;20041;-63
2022/01/02 09:21:43;;;;;;;8.98;4.90;;;;;;;11.49;82.99;101119.53;5006445;28;20105;-63
2022/01/02 09:24:08;;;;;;;9.88;4.65;;;;;;;11.77;80.88;101119.00;5019428;28;20104;-63
2022/01/02 09:26:33;;;;;;;9.27;4.88;;;;;;;11.98;80.04;101112.16;5021182;28;20021;-63
2022/01/02 09:28:58;;;;;;;9.55;4.65;;;;;;;12.33;80.36;101118.63;5016015;28;20854;-63
2022/01/02 09:31:24;;;;;;;10.93;4.90;;;;;;;12.71;76.98;101111.84;5019060;28;20103;-63
2022/01/02 09:33:50;;;;;;;9.90;5.15;;;;;;;12.78;76.93;101115.34;5022116;28;20026;-63
2022/01/02 09:36:16;;;;;;;10.13;4.97;;;;;;;12.83;76.80;101120.13;5008148;28;20116;-63
2022/01/02 09:38:42;;;;;;;9.25;4.63;;;;;;;12.71;76.45;101106.31;5017772;28;20044;-63
2022/01/02 09:41:08;;;;;;;11.48;5.47;;;;;;;12.56;78.10;101120.56;5018652;28;20479;-63
2022/01/02 09:43:33;;;;;;;9.20;5.00;;;;;;;12.52;77.36;101129.53;5011721;28;20388;-63
2022/01/02 09:45:59;;;;;;;12.13;5.47;;;;;;;12.49;77.39;101132.78;5013726;28;20026;-64
2022/01/02 09:48:27;;;;;;;9.82;5.18;;;;;;;12.42;78.02;101125.47;5018065;28;20343;-64
2022/01/02 09:50:52;;;;;;;10.20;5.47;;;;;;;12.40;77.76;101121.25;5019641;28;20038;-63
2022/01/02 09:53:18;;;;;;;11.88;5.40;;;;;;;12.45;78.05;101116.72;5021973;28;20111;-63
2022/01/02 09:55:43;;;;;;;15.05;6.10;;;;;;;12.75;77.28;101124.06;5020598;28;20037;-63
2022/01/02 09:58:12;;;;;;;10.90;5.68;;;;;;;13.04;76.41;101126.97;5006710;28;20034;-63
2022/01/02 10:00:39;;;;;;;11.75;6.10;;;;;;;13.25;74.81;101112.59;5021786;28;20443;-63
2022/01/02 10:03:07;;;;;;;11.77;6.10;;;;;;;13.52;74.85;101134.97;5021747;28;20057;-63
2022/01/02 10:05:53;;;;;;;12.95;6.25;;;;;;;14.06;72.58;101127.22;5020084;28;20068;-63
2022/01/02 10:08:30;;;;;;;11.52;6.30;;;;;;;14.65;71.26;101116.72;5022557;28;20095;-63
2022/01/02 10:11:17;;;;;;;11.63;5.88;;;;;;;14.24;70.57;101117.88;5021547;28;20040;-63
2022/01/02 10:13:53;;;;;;;11.27;6.18;;;;;;;13.52;72.25;101123.09;5025669;28;20042;-63
2022/01/02 10:16:33;;;;;;;11.70;6.50;;;;;;;13.24;74.94;101127.47;5027234;28;20105;-63
2022/01/02 10:19:00;;;;;;;10.85;6.25;;;;;;;12.90;75.51;101126.38;5009208;28;20041;-63
2022/01/02 10:21:34;;;;;;;11.57;6.10;;;;;;;12.84;76.80;101117.13;5006649;28;20767;-63
2022/01/02 10:24:25;;;;;;;12.60;6.00;;;;;;;12.92;76.66;101130.53;5008434;28;20473;-63
2022/01/02 10:27:04;;;;;;;11.13;5.60;;;;;;;12.69;76.78;101125.03;5017955;28;20065;-63
2022/01/02 10:29:56;;;;;;;11.60;6.00;;;;;;;12.63;77.31;101126.00;5024461;28;20451;-63
2022/01/02 10:32:26;;;;;;;12.90;6.05;;;;;;;12.49;77.58;101130.03;5020731;28;20756;-63
2022/01/02 10:34:53;;;;;;;12.27;5.82;;;;;;;12.62;76.82;101127.91;5025068;28;20048;-63
2022/01/02 10:37:26;;;;;;;10.00;5.47;;;;;;;13.05;75.97;101112.94;5024491;28;20025;-63
2022/01/02 10:39:51;;;;;;;12.35;5.57;;;;;;;13.39;75.30;101100.22;5027304;28;20033;-64
2022/01/02 10:42:18;;;;;;;14.40;5.65;;;;;;;14.16;72.22;101090.69;5010980;28;20032;-63
2022/01/02 10:44:44;;;;;;;11.52;5.82;;;;;;;15.34;67.52;101094.22;5027892;28;20025;-63
2022/01/02 10:47:26;;;;;;;13.88;6.03;;;;;;;15.07;67.59;101099.66;5021108;28;20120;-63
2022/01/02 10:50:07;;;;;;;11.40;4.70;;;;;;;14.25;71.29;101108.53;5025070;28;20418;-64
2022/01/02 10:52:32;;;;;;;11.40;5.00;;;;;;;13.67;72.14;101110.44;5026812;28;20037;-63
2022/01/02 10:55:05;;;;;;;13.20;6.03;;;;;;;13.61;73.25;101097.63;5027788;28;20030;-63
2022/01/02 10:57:30;;;;;;;13.55;4.88;;;;;;;13.58;73.07;101091.75;5015847;28;20291;-63
2022/01/02 10:59:57;;;;;;;13.43;5.50;;;;;;;13.36;74.12;101103.44;5026465;28;20033;-63
2022/01/02 11:02:24;;;;;;;13.35;5.47;;;;;;;13.09;75.12;101108.63;5025241;28;20119;-64
2022/01/02 11:04:55;;;;;;;10.32;5.80;;;;;;;12.97;75.95;101113.28;5026461;28;20100;-63
2022/01/02 11:07:22;;;;;;;15.05;5.72;;;;;;;12.87;76.45;101105.63;5024410;28;20037;-64
2022/01/02 11:09:51;;;;;;;11.32;5.25;;;;;;;12.96;76.41;101109.69;5026790;28;20026;-63
2022/01/02 11:12:16;;;;;;;13.30;5.68;;;;;;;12.95;76.85;101109.94;5026045;28;20099;-63
2022/01/02 11:14:41;;;;;;;13.95;5.38;;;;;;;13.19;76.04;101102.50;5027568;28;20060;-63
2022/01/02 11:17:07;;;;;;;11.88;5.72;;;;;;;13.57;75.87;101104.72;5022748;28;20439;-63
2022/01/02 11:19:32;;;;;;;11.57;4.75;;;;;;;14.23;72.10;101102.41;5026173;28;20099;-63
2022/01/02 11:22:00;;;;;;;13.55;5.32;;;;;;;14.22;71.18;101106.25;5025546;28;20022;-63
2022/01/02 11:24:28;;;;;;;13.48;5.13;;;;;;;13.82;72.99;101098.88;5025857;28;20060;-63
2022/01/02 11:27:02;;;;;;;16.00;5.50;;;;;;;13.52;74.27;101107.38;5026521;28;20053;-63
2022/01/02 11:29:29;;;;;;;13.60;5.40;;;;;;;13.31;74.88;101096.97;5013332;28;20076;-63